createdAt,value
2023-03-16T00:00:10.078Z,99654.94
2023-03-16T00:02:39.621Z,99651.38
2023-03-16T00:05:09.812Z,99644.56
2023-03-16T00:07:39.656Z,99639.34
2023-03-16T00:10:09.895Z,99653.03
2023-03-16T00:12:38.373Z,99649.47
2023-03-16T00:15:06.108Z,99648.63
2023-03-16T00:17:36.695Z,99651.50
2023-03-16T00:20:09.216Z,99654.06
2023-03-16T00:22:37.515Z,99648.88
2023-03-16T00:25:04.793Z,99638.44
2023-03-16T00:27:32.195Z,99634.41
2023-03-16T00:29:59.199Z,99639.44
2023-03-16T00:32:29.234Z,99649.63
2023-03-16T00:34:56.778Z,99653.06
2023-03-16T00:37:26.578Z,99647.31
2023-03-16T00:39:56.723Z,99659.25
2023-03-16T00:42:29.579Z,99658.31
2023-03-16T00:44:58.296Z,99657.28
2023-03-16T00:47:31.638Z,99651.94
2023-03-16T00:50:00.131Z,99645.00
2023-03-16T00:52:28.088Z,99658.13
2023-03-16T00:54:56.060Z,99655.53
2023-03-16T00:57:25.415Z,99664.84
2023-03-16T00:59:52.914Z,99656.06
2023-03-16T01:02:23.630Z,99660.94
2023-03-16T01:04:52.243Z,99646.47
2023-03-16T01:07:19.671Z,99644.75
2023-03-16T01:09:47.720Z,99647.06
2023-03-16T01:12:17.938Z,99638.16
2023-03-16T01:14:48.108Z,99623.78
2023-03-16T01:17:16.401Z,99621.88
2023-03-16T01:19:44.087Z,99625.34
2023-03-16T01:22:13.662Z,99628.75
2023-03-16T01:24:45.508Z,99614.94
2023-03-16T01:27:14.906Z,99603.59
2023-03-16T01:29:43.802Z,99599.31
2023-03-16T01:32:15.031Z,99586.63
2023-03-16T01:34:42.481Z,99586.31
2023-03-16T01:37:12.594Z,99584.69
2023-03-16T01:39:40.073Z,99582.00
2023-03-16T01:42:07.926Z,99576.06
2023-03-16T01:44:55.575Z,99576.59
2023-03-16T01:47:24.146Z,99563.06
2023-03-16T01:49:55.292Z,99574.13
2023-03-16T01:52:27.646Z,99568.94
2023-03-16T01:55:03.307Z,99551.84
2023-03-16T01:57:37.421Z,99547.56
2023-03-16T02:00:23.795Z,99538.28
2023-03-16T02:02:57.832Z,99531.06
2023-03-16T02:05:49.352Z,99512.56
2023-03-16T02:08:18.246Z,99497.03
2023-03-16T02:10:46.210Z,99493.41
2023-03-16T02:13:15.929Z,99482.88
2023-03-16T02:15:50.025Z,99493.19
2023-03-16T02:18:17.494Z,99494.16
2023-03-16T02:20:55.559Z,99487.78
2023-03-16T02:23:25.563Z,99469.00
2023-03-16T02:26:01.923Z,99457.88
2023-03-16T02:28:38.708Z,99452.63
2023-03-16T02:31:07.566Z,99449.03
2023-03-16T02:33:36.051Z,99445.03
2023-03-16T02:36:03.109Z,99451.75
2023-03-16T02:38:30.222Z,99453.38
2023-03-16T02:41:14.072Z,99445.47
2023-03-16T02:43:48.389Z,99433.31
2023-03-16T02:46:18.243Z,99416.47
2023-03-16T02:48:51.623Z,99413.78
2023-03-16T02:51:18.739Z,99405.25
2023-03-16T02:53:47.834Z,99389.19
2023-03-16T02:56:22.669Z,99397.06
2023-03-16T02:58:52.686Z,99417.38
2023-03-16T03:01:19.726Z,99418.09
2023-03-16T03:03:49.652Z,99412.81
2023-03-16T03:06:19.656Z,99414.22
2023-03-16T03:08:49.961Z,99414.94
2023-03-16T03:11:20.001Z,99402.53
2023-03-16T03:13:50.389Z,99410.09
2023-03-16T03:16:19.450Z,99410.91
2023-03-16T03:18:49.025Z,99404.72
2023-03-16T03:21:19.554Z,99409.88
2023-03-16T03:23:48.237Z,99412.44
2023-03-16T03:26:18.264Z,99402.94
2023-03-16T03:28:46.118Z,99397.16
2023-03-16T03:31:22.997Z,99375.78
2023-03-16T03:33:50.055Z,99379.81
2023-03-16T03:36:22.413Z,99358.59
2023-03-16T03:38:50.116Z,99349.19
2023-03-16T03:41:17.978Z,99340.09
2023-03-16T03:43:45.292Z,99335.13
2023-03-16T03:46:12.707Z,99330.69
2023-03-16T03:48:39.797Z,99333.53
2023-03-16T03:51:07.035Z,99331.56
2023-03-16T03:53:36.854Z,99323.81
2023-03-16T03:56:04.028Z,99332.75
2023-03-16T03:58:31.359Z,99313.56
2023-03-16T04:00:58.698Z,99313.56
2023-03-16T04:03:26.140Z,99302.63
2023-03-16T04:05:53.679Z,99304.66
2023-03-16T04:08:22.903Z,99314.22
2023-03-16T04:10:51.173Z,99322.75
2023-03-16T04:13:18.475Z,99338.31
2023-03-16T04:15:47.383Z,99336.00
2023-03-16T04:18:14.738Z,99353.84
2023-03-16T04:20:42.154Z,99362.16
2023-03-16T04:23:09.556Z,99375.41
2023-03-16T04:25:38.938Z,99372.88
2023-03-16T04:28:06.063Z,99361.09
2023-03-16T04:30:36.043Z,99380.78
2023-03-16T04:33:05.066Z,99397.94
2023-03-16T04:35:32.190Z,99407.03
2023-03-16T04:37:59.450Z,99426.03
2023-03-16T04:40:27.072Z,99422.75
2023-03-16T04:42:55.086Z,99422.50
2023-03-16T04:45:24.762Z,99425.88
2023-03-16T04:47:54.737Z,99425.97
2023-03-16T04:50:24.035Z,99431.94
2023-03-16T04:52:52.543Z,99430.06
2023-03-16T04:55:20.475Z,99423.97
2023-03-16T04:57:47.648Z,99420.59
2023-03-16T05:00:22.276Z,99403.13
2023-03-16T05:02:52.860Z,99406.25
2023-03-16T05:05:21.822Z,99411.28
2023-03-16T05:07:49.451Z,99421.34
2023-03-16T05:10:19.215Z,99420.66
2023-03-16T05:12:46.514Z,99425.75
2023-03-16T05:15:14.081Z,99427.28
2023-03-16T05:17:42.375Z,99422.81
2023-03-16T05:20:16.206Z,99425.59
2023-03-16T05:22:45.471Z,99422.56
2023-03-16T05:25:16.197Z,99421.47
2023-03-16T05:27:48.035Z,99417.13
2023-03-16T05:30:16.681Z,99418.88
2023-03-16T05:32:44.573Z,99413.28
2023-03-16T05:35:15.555Z,99418.16
2023-03-16T05:37:43.727Z,99417.91
2023-03-16T05:40:19.171Z,99418.59
2023-03-16T05:43:00.729Z,99424.69
2023-03-16T05:45:29.346Z,99434.91
2023-03-16T05:47:58.333Z,99444.81
2023-03-16T05:50:27.452Z,99440.53
2023-03-16T05:52:54.805Z,99442.34
2023-03-16T05:55:23.735Z,99434.66
2023-03-16T05:57:51.298Z,99427.84
2023-03-16T06:00:19.923Z,99439.81
2023-03-16T06:02:48.726Z,99442.81
2023-03-16T06:05:17.376Z,99438.13
2023-03-16T06:07:45.129Z,99444.19
2023-03-16T06:10:14.020Z,99437.41
2023-03-16T06:12:41.686Z,99443.38
2023-03-16T06:15:10.584Z,99451.22
2023-03-16T06:17:39.355Z,99441.91
2023-03-16T06:20:11.579Z,99438.41
2023-03-16T06:22:40.372Z,99434.19
2023-03-16T06:25:10.188Z,99430.94
2023-03-16T06:27:37.604Z,99425.72
2023-03-16T06:30:07.331Z,99421.25
2023-03-16T06:32:34.719Z,99416.22
2023-03-16T06:35:03.529Z,99400.19
2023-03-16T06:37:32.485Z,99394.09
2023-03-16T06:40:00.158Z,99393.44
2023-03-16T06:42:27.904Z,99403.00
2023-03-16T06:44:55.521Z,99401.59
2023-03-16T06:47:22.566Z,99395.75
2023-03-16T06:49:51.900Z,99417.25
2023-03-16T06:52:18.841Z,99408.25
2023-03-16T06:54:45.885Z,99420.25
2023-03-16T06:57:12.967Z,99422.16
2023-03-16T06:59:40.085Z,99421.56
2023-03-16T07:02:07.483Z,99425.19
2023-03-16T07:04:34.451Z,99429.78
2023-03-16T07:07:03.467Z,99428.31
2023-03-16T07:09:31.873Z,99425.06
2023-03-16T07:11:59.147Z,99426.06
2023-03-16T07:14:26.429Z,99430.53
2023-03-16T07:16:53.405Z,99428.34
2023-03-16T07:19:20.794Z,99441.34
2023-03-16T07:21:48.412Z,99445.81
2023-03-16T07:24:15.796Z,99452.97
2023-03-16T07:26:43.514Z,99456.78
2023-03-16T07:29:10.605Z,99463.69
2023-03-16T07:31:38.193Z,99468.19
2023-03-16T07:34:05.875Z,99478.63
2023-03-16T07:36:35.126Z,99487.34
2023-03-16T07:39:03.048Z,99490.91
2023-03-16T07:41:32.613Z,99499.56
2023-03-16T07:44:00.420Z,99491.25
2023-03-16T07:46:27.293Z,99498.31
2023-03-16T07:48:54.669Z,99485.56
2023-03-16T07:51:22.146Z,99505.28
2023-03-16T07:53:49.083Z,99498.75
2023-03-16T07:56:16.125Z,99499.03
2023-03-16T07:58:43.581Z,99494.81
2023-03-16T08:01:12.380Z,99499.13
2023-03-16T08:03:40.502Z,99486.63
2023-03-16T08:06:07.661Z,99478.31
2023-03-16T08:08:37.869Z,99482.78
2023-03-16T08:11:08.848Z,99481.13
2023-03-16T08:13:36.688Z,99480.41
2023-03-16T08:16:05.070Z,99477.22
2023-03-16T08:18:32.416Z,99485.75
2023-03-16T08:20:59.329Z,99469.66
2023-03-16T08:23:26.645Z,99468.25
2023-03-16T08:25:54.882Z,99470.88
2023-03-16T08:28:22.386Z,99471.00
2023-03-16T08:30:51.333Z,99471.06
2023-03-16T08:33:22.576Z,99475.50
2023-03-16T08:35:50.998Z,99468.84
2023-03-16T08:38:19.411Z,99465.47
2023-03-16T08:40:48.810Z,99468.28
2023-03-16T08:43:17.424Z,99476.84
2023-03-16T08:45:47.592Z,99460.75
2023-03-16T08:48:15.292Z,99483.03
2023-03-16T08:50:44.353Z,99477.94
2023-03-16T08:53:13.878Z,99472.88
2023-03-16T08:55:41.952Z,99467.88
2023-03-16T08:58:10.801Z,99456.94
2023-03-16T09:00:40.472Z,99457.94
2023-03-16T09:03:10.643Z,99464.06
2023-03-16T09:05:41.039Z,99463.22
2023-03-16T09:08:10.255Z,99477.06
2023-03-16T09:10:40.220Z,99469.44
2023-03-16T09:13:09.016Z,99468.72
2023-03-16T09:15:37.035Z,99466.16
2023-03-16T09:18:04.251Z,99467.13
2023-03-16T09:20:33.228Z,99455.31
2023-03-16T09:23:00.585Z,99468.25
2023-03-16T09:25:28.016Z,99459.75
2023-03-16T09:27:55.919Z,99465.75
2023-03-16T09:30:23.313Z,99459.00
2023-03-16T09:32:51.173Z,99457.38
2023-03-16T09:35:21.015Z,99462.69
2023-03-16T09:38:04.695Z,99463.53
2023-03-16T09:40:32.621Z,99466.94
2023-03-16T09:43:21.079Z,99444.81
2023-03-16T09:46:03.256Z,99458.72
2023-03-16T09:48:32.999Z,99449.22
2023-03-16T09:51:02.492Z,99455.28
2023-03-16T09:53:34.644Z,99467.50
2023-03-16T09:56:03.775Z,99439.25
2023-03-16T09:58:32.674Z,99458.97
2023-03-16T10:01:14.713Z,99454.78
2023-03-16T10:04:01.003Z,99459.28
2023-03-16T10:06:28.673Z,99451.69
2023-03-16T10:09:28.897Z,99448.28
2023-03-16T10:12:01.275Z,99441.41
2023-03-16T10:15:08.521Z,99444.03
2023-03-16T10:17:44.097Z,99436.47
2023-03-16T10:20:40.595Z,99436.56
2023-03-16T10:23:26.569Z,99433.25
2023-03-16T10:25:55.480Z,99434.97
2023-03-16T10:28:24.460Z,99435.09
2023-03-16T10:30:54.740Z,99435.13
2023-03-16T10:33:26.756Z,99434.34
2023-03-16T10:36:13.551Z,99440.41
2023-03-16T10:38:43.486Z,99435.28
2023-03-16T10:41:26.002Z,99425.97
2023-03-16T10:44:07.702Z,99433.84
2023-03-16T10:46:48.729Z,99430.50
2023-03-16T10:49:27.327Z,99428.81
2023-03-16T10:51:58.225Z,99422.81
2023-03-16T10:54:33.147Z,99431.50
2023-03-16T10:57:01.216Z,99421.25
2023-03-16T10:59:32.119Z,99423.84
2023-03-16T11:02:00.716Z,99424.72
2023-03-16T11:04:32.623Z,99422.19
2023-03-16T11:07:00.150Z,99410.22
2023-03-16T11:09:37.555Z,99409.44
2023-03-16T11:12:30.411Z,99425.78
2023-03-16T11:15:09.328Z,99420.66
2023-03-16T11:17:48.312Z,99421.53
2023-03-16T11:20:20.087Z,99410.47
2023-03-16T11:22:48.718Z,99414.78
2023-03-16T11:25:29.954Z,99415.66
2023-03-16T11:28:41.944Z,99409.69
2023-03-16T11:31:53.807Z,99414.94
2023-03-16T11:34:28.507Z,99413.25
2023-03-16T11:37:00.180Z,99411.56
2023-03-16T11:39:54.765Z,99410.78
2023-03-16T11:42:41.896Z,99421.97
2023-03-16T11:45:17.862Z,99412.56
2023-03-16T11:47:50.747Z,99413.47
2023-03-16T11:50:35.123Z,99419.47
2023-03-16T11:53:15.815Z,99412.56
2023-03-16T11:55:48.936Z,99418.66
2023-03-16T11:58:37.920Z,99409.22
2023-03-16T12:01:14.494Z,99414.38
2023-03-16T12:03:44.364Z,99408.41
2023-03-16T12:06:31.013Z,99411.88
2023-03-16T12:09:21.217Z,99402.38
2023-03-16T12:11:49.868Z,99410.13
2023-03-16T12:14:31.063Z,99417.03
2023-03-16T12:17:10.126Z,99417.03
2023-03-16T12:20:06.103Z,99412.72
2023-03-16T12:22:48.920Z,99413.59
2023-03-16T12:25:24.247Z,99405.00
2023-03-16T12:27:58.095Z,99402.50
2023-03-16T12:30:49.725Z,99386.13
2023-03-16T12:33:28.043Z,99388.75
2023-03-16T12:36:35.391Z,99391.28
2023-03-16T12:39:09.451Z,99396.47
2023-03-16T12:41:57.751Z,99381.91
2023-03-16T12:44:46.873Z,99381.88
2023-03-16T12:47:35.675Z,99399.09
2023-03-16T12:50:13.014Z,99373.28
2023-03-16T12:52:53.442Z,99364.69
2023-03-16T12:55:39.166Z,99372.44
2023-03-16T12:58:09.529Z,99369.88
2023-03-16T13:00:42.783Z,99367.28
2023-03-16T13:03:23.403Z,99362.09
2023-03-16T13:05:59.822Z,99346.63
2023-03-16T13:08:30.819Z,99359.53
2023-03-16T13:11:06.657Z,99358.66
2023-03-16T13:13:34.465Z,99355.22
2023-03-16T13:16:10.466Z,99344.91
2023-03-16T13:18:45.189Z,99344.06
2023-03-16T13:21:34.988Z,99332.88
2023-03-16T13:24:20.595Z,99332.84
2023-03-16T13:26:55.668Z,99327.69
2023-03-16T13:29:27.411Z,99332.84
2023-03-16T13:31:58.061Z,99313.94
2023-03-16T13:34:31.978Z,99319.09
2023-03-16T13:37:01.764Z,99321.69
2023-03-16T13:39:30.957Z,99313.06
2023-03-16T13:42:16.943Z,99319.06
2023-03-16T13:44:44.743Z,99312.19
2023-03-16T13:47:17.170Z,99319.97
2023-03-16T13:49:47.680Z,99300.97
2023-03-16T13:52:31.850Z,99306.13
2023-03-16T13:55:02.121Z,99313.03
2023-03-16T13:57:32.775Z,99313.91
2023-03-16T14:00:44.138Z,99299.25
2023-03-16T14:03:20.211Z,99307.03
2023-03-16T14:05:47.914Z,99313.03
2023-03-16T14:08:26.737Z,99302.72
2023-03-16T14:11:00.916Z,99323.41
2023-03-16T14:13:27.909Z,99320.81
2023-03-16T14:16:03.224Z,99311.34
2023-03-16T14:19:10.476Z,99322.53
2023-03-16T14:21:38.519Z,99311.34
2023-03-16T14:24:08.031Z,99318.22
2023-03-16T14:26:48.189Z,99324.25
2023-03-16T14:29:26.482Z,99307.91
2023-03-16T14:32:01.671Z,99305.31
2023-03-16T14:34:36.854Z,99319.06
2023-03-16T14:37:09.753Z,99306.16
2023-03-16T14:39:37.521Z,99313.06
2023-03-16T14:42:07.598Z,99301.03
2023-03-16T14:44:37.414Z,99315.66
2023-03-16T14:47:06.273Z,99309.59
2023-03-16T14:49:38.842Z,99325.97
2023-03-16T14:52:32.064Z,99317.34
2023-03-16T14:55:03.297Z,99315.66
2023-03-16T14:57:31.288Z,99322.53
2023-03-16T14:59:58.970Z,99317.38
2023-03-16T15:02:30.063Z,99307.06
2023-03-16T15:05:00.754Z,99319.09
2023-03-16T15:07:33.002Z,99317.38
2023-03-16T15:10:07.503Z,99320.78
2023-03-16T15:12:38.212Z,99309.63
2023-03-16T15:15:19.728Z,99309.63
2023-03-16T15:17:47.121Z,99311.34
2023-03-16T15:20:17.109Z,99315.66
2023-03-16T15:22:46.476Z,99305.31
2023-03-16T15:25:25.004Z,99305.31
2023-03-16T15:27:53.226Z,99306.19
2023-03-16T15:30:24.754Z,99310.47
2023-03-16T15:32:52.214Z,99311.34
2023-03-16T15:35:20.444Z,99319.94
2023-03-16T15:37:47.914Z,99312.19
2023-03-16T15:40:28.583Z,99326.00
2023-03-16T15:42:56.095Z,99320.81
2023-03-16T15:45:24.448Z,99316.50
2023-03-16T15:47:53.918Z,99312.19
2023-03-16T15:50:24.910Z,99302.72
2023-03-16T15:53:02.226Z,99298.44
2023-03-16T15:55:37.886Z,99313.91
2023-03-16T15:58:06.624Z,99292.41
2023-03-16T16:00:36.053Z,99305.31
2023-03-16T16:03:05.717Z,99298.44
2023-03-16T16:05:33.524Z,99293.25
2023-03-16T16:08:02.275Z,99296.72
2023-03-16T16:10:30.611Z,99291.53
2023-03-16T16:12:59.737Z,99299.28
2023-03-16T16:15:31.583Z,99299.28
2023-03-16T16:18:19.820Z,99294.09
2023-03-16T16:20:46.180Z,99295.81
2023-03-16T16:23:14.121Z,99294.97
2023-03-16T16:25:42.647Z,99291.53
2023-03-16T16:28:19.197Z,99289.81
2023-03-16T16:30:46.509Z,99279.50
2023-03-16T16:33:36.751Z,99284.66
2023-03-16T16:36:07.506Z,99276.91
2023-03-16T16:38:34.480Z,99285.50
2023-03-16T16:41:06.966Z,99288.94
2023-03-16T16:43:39.131Z,99282.91
2023-03-16T16:46:15.792Z,99285.50
2023-03-16T16:48:46.443Z,99282.94
2023-03-16T16:51:35.085Z,99274.31
2023-03-16T16:54:02.752Z,99285.47
2023-03-16T16:56:35.890Z,99292.38
2023-03-16T16:59:19.261Z,99291.53
2023-03-16T17:01:47.688Z,99287.13
2023-03-16T17:04:19.994Z,99303.47
2023-03-16T17:06:46.972Z,99291.38
2023-03-16T17:09:14.471Z,99288.72
2023-03-16T17:11:43.505Z,99305.00
2023-03-16T17:14:16.865Z,99298.97
2023-03-16T17:16:45.006Z,99308.38
2023-03-16T17:19:23.508Z,99298.03
2023-03-16T17:21:52.027Z,99324.66
2023-03-16T17:24:19.077Z,99322.06
2023-03-16T17:26:52.925Z,99316.84
2023-03-16T17:29:23.137Z,99316.81
2023-03-16T17:31:51.373Z,99321.91
2023-03-16T17:34:29.279Z,99322.72
2023-03-16T17:36:56.547Z,99316.69
2023-03-16T17:39:26.357Z,99326.09
2023-03-16T17:42:09.850Z,99319.16
2023-03-16T17:44:44.324Z,99320.00
2023-03-16T17:47:15.755Z,99325.94
2023-03-16T17:49:42.879Z,99334.50
2023-03-16T17:52:19.270Z,99329.28
2023-03-16T17:54:47.943Z,99328.38
2023-03-16T17:57:22.376Z,99321.47
2023-03-16T17:59:49.105Z,99312.81
2023-03-16T18:03:00.723Z,99311.06
2023-03-16T18:05:31.245Z,99319.56
2023-03-16T18:08:28.172Z,99317.88
2023-03-16T18:10:59.530Z,99315.16
2023-03-16T18:13:33.392Z,99315.19
2023-03-16T18:16:02.163Z,99319.41
2023-03-16T18:18:32.928Z,99316.78
2023-03-16T18:21:00.750Z,99325.31
2023-03-16T18:23:34.716Z,99325.28
2023-03-16T18:26:06.475Z,99314.94
2023-03-16T18:28:34.671Z,99326.94
2023-03-16T18:31:04.002Z,99319.16
2023-03-16T18:33:35.614Z,99315.69
2023-03-16T18:36:17.855Z,99316.56
2023-03-16T18:38:48.490Z,99314.69
2023-03-16T18:41:24.916Z,99319.03
2023-03-16T18:43:54.636Z,99328.47
2023-03-16T18:46:26.128Z,99323.22
2023-03-16T18:48:55.810Z,99326.69
2023-03-16T18:51:23.967Z,99330.06
2023-03-16T18:53:54.405Z,99321.50
2023-03-16T18:56:27.325Z,99324.84
2023-03-16T18:58:56.328Z,99321.44
2023-03-16T19:01:28.342Z,99325.66
2023-03-16T19:03:57.382Z,99329.94
2023-03-16T19:06:29.931Z,99327.31
2023-03-16T19:09:04.012Z,99330.72
2023-03-16T19:11:31.681Z,99321.25
2023-03-16T19:13:58.641Z,99322.13
2023-03-16T19:16:25.934Z,99312.63
2023-03-16T19:18:53.035Z,99316.09
2023-03-16T19:21:23.401Z,99309.25
2023-03-16T19:24:00.542Z,99316.84
2023-03-16T19:26:29.424Z,99304.00
2023-03-16T19:28:57.051Z,99307.41
2023-03-16T19:31:29.370Z,99311.69
2023-03-16T19:33:57.201Z,99296.22
2023-03-16T19:36:27.279Z,99292.78
2023-03-16T19:38:54.412Z,99294.53
2023-03-16T19:41:27.070Z,99289.38
2023-03-16T19:43:57.918Z,99292.66
2023-03-16T19:46:29.629Z,99293.53
2023-03-16T19:48:56.991Z,99305.44
2023-03-16T19:51:25.613Z,99285.69
2023-03-16T19:53:53.074Z,99306.28
2023-03-16T19:56:22.073Z,99295.09
2023-03-16T19:58:51.884Z,99293.41
2023-03-16T20:01:32.305Z,99306.16
2023-03-16T20:03:59.833Z,99301.09
2023-03-16T20:06:27.480Z,99308.78
2023-03-16T20:08:54.620Z,99307.00
2023-03-16T20:11:32.633Z,99311.22
2023-03-16T20:14:00.691Z,99311.16
2023-03-16T20:16:33.132Z,99303.47
2023-03-16T20:19:03.280Z,99287.97
2023-03-16T20:21:32.980Z,99287.91
2023-03-16T20:24:00.182Z,99288.78
2023-03-16T20:26:32.411Z,99287.81
2023-03-16T20:29:01.090Z,99287.84
2023-03-16T20:31:31.523Z,99290.44
2023-03-16T20:33:59.022Z,99273.28
2023-03-16T20:36:27.318Z,99273.34
2023-03-16T20:38:54.090Z,99280.03
2023-03-16T20:41:33.006Z,99289.50
2023-03-16T20:44:01.899Z,99269.78
2023-03-16T20:46:31.477Z,99262.06
2023-03-16T20:49:00.832Z,99267.16
2023-03-16T20:51:28.925Z,99252.59
2023-03-16T20:53:55.572Z,99254.16
2023-03-16T20:56:25.930Z,99252.53
2023-03-16T20:58:56.320Z,99258.38
2023-03-16T21:01:24.869Z,99261.81
2023-03-16T21:03:55.359Z,99265.31
2023-03-16T21:06:28.690Z,99257.59
2023-03-16T21:08:57.632Z,99266.19
2023-03-16T21:11:42.379Z,99264.41
2023-03-16T21:14:23.033Z,99266.97
2023-03-16T21:16:51.074Z,99242.97
2023-03-16T21:19:21.860Z,99261.84
2023-03-16T21:21:48.967Z,99261.06
2023-03-16T21:24:16.193Z,99252.41
2023-03-16T21:26:45.483Z,99237.81
2023-03-16T21:29:17.192Z,99242.16
2023-03-16T21:31:44.647Z,99229.28
2023-03-16T21:34:28.402Z,99221.47
2023-03-16T21:36:55.350Z,99224.09
2023-03-16T21:39:25.333Z,99209.56
2023-03-16T21:41:53.859Z,99200.06
2023-03-16T21:44:23.823Z,99205.25
2023-03-16T21:46:51.250Z,99197.50
2023-03-16T21:49:18.495Z,99182.94
2023-03-16T21:51:46.060Z,99185.56
2023-03-16T21:54:15.492Z,99175.25
2023-03-16T21:56:44.087Z,99194.94
2023-03-16T21:59:11.935Z,99202.59
2023-03-16T22:01:50.960Z,99190.63
2023-03-16T22:04:25.598Z,99188.06
2023-03-16T22:06:52.656Z,99180.38
2023-03-16T22:09:23.892Z,99173.53
2023-03-16T22:11:51.121Z,99163.19
2023-03-16T22:14:19.257Z,99169.19
2023-03-16T22:16:46.209Z,99160.66
2023-03-16T22:19:14.793Z,99148.59
2023-03-16T22:21:44.025Z,99145.25
2023-03-16T22:24:26.547Z,99141.88
2023-03-16T22:26:54.021Z,99133.25
2023-03-16T22:29:29.442Z,99129.81
2023-03-16T22:31:59.728Z,99122.09
2023-03-16T22:34:31.625Z,99114.44
2023-03-16T22:37:00.890Z,99120.44
2023-03-16T22:39:31.057Z,99104.97
2023-03-16T22:41:58.107Z,99109.22
2023-03-16T22:44:25.052Z,99109.19
2023-03-16T22:46:52.061Z,99116.91
2023-03-16T22:49:25.910Z,99101.53
2023-03-16T22:51:56.428Z,99111.75
2023-03-16T22:54:27.689Z,99105.78
2023-03-16T22:56:54.713Z,99130.69
2023-03-16T22:59:27.856Z,99126.41
2023-03-16T23:01:54.769Z,99113.63
2023-03-16T23:04:24.902Z,99135.00
2023-03-16T23:06:53.860Z,99121.31
2023-03-16T23:09:22.127Z,99127.25
2023-03-16T23:11:54.148Z,99138.44
2023-03-16T23:14:24.580Z,99127.28
2023-03-16T23:16:53.690Z,99139.31
2023-03-16T23:19:27.644Z,99125.56
2023-03-16T23:21:58.092Z,99130.72
2023-03-16T23:24:25.130Z,99137.53
2023-03-16T23:26:54.319Z,99135.03
2023-03-16T23:29:24.099Z,99123.06
2023-03-16T23:31:52.829Z,99133.34
2023-03-16T23:34:23.492Z,99135.06
2023-03-16T23:36:52.048Z,99135.06
2023-03-16T23:39:19.283Z,99138.53
2023-03-16T23:41:51.283Z,99125.75
2023-03-16T23:44:26.449Z,99134.31
2023-03-16T23:46:54.214Z,99136.84
2023-03-16T23:49:25.578Z,99118.94
2023-03-16T23:51:55.773Z,99108.69
2023-03-16T23:54:26.238Z,99122.31
2023-03-16T23:56:55.432Z,99108.75
2023-03-16T23:59:24.647Z,99101.00
